sensor_id;sensor_type;location;lat;lon;timestamp;pressure;altitude;pressure_sealevel;temperature;humidity
15419;BME280;7808;43.712;23.098;2022-08-07T00:00:47;100248.53;;;25.86;71.59
15419;BME280;7808;43.712;23.098;2022-08-07T00:03:14;100252.78;;;25.90;71.93
15419;BME280;7808;43.712;23.098;2022-08-07T00:05:42;100251.69;;;26.04;71.43
15419;BME280;7808;43.712;23.098;2022-08-07T00:08:09;100251.88;;;26.13;71.38
15419;BME280;7808;43.712;23.098;2022-08-07T00:10:36;100255.34;;;26.17;69.89
15419;BME280;7808;43.712;23.098;2022-08-07T00:13:04;100257.28;;;26.20;70.52
15419;BME280;7808;43.712;23.098;2022-08-07T00:15:32;100254.84;;;26.22;71.05
15419;BME280;7808;43.712;23.098;2022-08-07T00:17:59;100251.28;;;26.22;70.64
15419;BME280;7808;43.712;23.098;2022-08-07T00:20:26;100246.59;;;26.19;70.35
15419;BME280;7808;43.712;23.098;2022-08-07T00:22:54;100252.31;;;26.28;69.55
15419;BME280;7808;43.712;23.098;2022-08-07T00:25:21;100243.72;;;26.22;69.61
15419;BME280;7808;43.712;23.098;2022-08-07T00:27:49;100256.69;;;26.29;70.45
15419;BME280;7808;43.712;23.098;2022-08-07T00:30:16;100273.09;;;26.23;69.87
15419;BME280;7808;43.712;23.098;2022-08-07T00:32:46;100261.25;;;26.19;69.43
15419;BME280;7808;43.712;23.098;2022-08-07T00:35:13;100265.00;;;26.13;70.52
15419;BME280;7808;43.712;23.098;2022-08-07T00:37:40;100252.72;;;26.10;70.41
15419;BME280;7808;43.712;23.098;2022-08-07T00:40:09;100257.44;;;26.13;69.84
15419;BME280;7808;43.712;23.098;2022-08-07T00:42:36;100266.44;;;26.01;70.46
15419;BME280;7808;43.712;23.098;2022-08-07T00:45:04;100263.72;;;25.97;70.54
15419;BME280;7808;43.712;23.098;2022-08-07T00:47:31;100260.16;;;25.97;70.57
15419;BME280;7808;43.712;23.098;2022-08-07T00:49:59;100261.56;;;26.05;70.22
15419;BME280;7808;43.712;23.098;2022-08-07T00:52:26;100265.56;;;26.04;70.16
15419;BME280;7808;43.712;23.098;2022-08-07T00:54:53;100282.38;;;25.97;70.66
15419;BME280;7808;43.712;23.098;2022-08-07T00:57:22;100276.81;;;25.97;70.57
15419;BME280;7808;43.712;23.098;2022-08-07T00:59:49;100287.25;;;25.93;71.27
15419;BME280;7808;43.712;23.098;2022-08-07T01:02:17;100272.81;;;25.82;71.37
15419;BME280;7808;43.712;23.098;2022-08-07T01:04:45;100281.19;;;25.98;71.52
15419;BME280;7808;43.712;23.098;2022-08-07T01:07:12;100290.38;;;25.95;72.35
15419;BME280;7808;43.712;23.098;2022-08-07T01:09:40;100296.03;;;25.91;72.09
15419;BME280;7808;43.712;23.098;2022-08-07T01:12:07;100305.47;;;25.94;72.56
15419;BME280;7808;43.712;23.098;2022-08-07T01:14:36;100304.59;;;25.97;72.95
15419;BME280;7808;43.712;23.098;2022-08-07T01:17:03;100298.91;;;26.04;72.85
15419;BME280;7808;43.712;23.098;2022-08-07T01:19:31;100306.00;;;26.05;73.04
15419;BME280;7808;43.712;23.098;2022-08-07T01:22:01;100297.53;;;26.12;72.27
15419;BME280;7808;43.712;23.098;2022-08-07T01:24:29;100300.66;;;26.14;72.97
15419;BME280;7808;43.712;23.098;2022-08-07T01:26:56;100300.25;;;26.16;73.19
15419;BME280;7808;43.712;23.098;2022-08-07T01:29:25;100293.56;;;26.13;73.82
15419;BME280;7808;43.712;23.098;2022-08-07T01:31:53;100306.75;;;26.09;75.01
15419;BME280;7808;43.712;23.098;2022-08-07T01:34:20;100292.84;;;26.09;75.83
15419;BME280;7808;43.712;23.098;2022-08-07T01:36:48;100296.25;;;26.17;75.32
15419;BME280;7808;43.712;23.098;2022-08-07T01:39:16;100308.16;;;26.17;76.79
15419;BME280;7808;43.712;23.098;2022-08-07T01:41:43;100296.19;;;26.20;76.43
15419;BME280;7808;43.712;23.098;2022-08-07T01:44:11;100309.72;;;26.18;77.69
15419;BME280;7808;43.712;23.098;2022-08-07T01:46:39;100312.91;;;26.17;78.48
15419;BME280;7808;43.712;23.098;2022-08-07T01:49:08;100309.78;;;26.15;78.65
15419;BME280;7808;43.712;23.098;2022-08-07T01:51:36;100310.50;;;26.19;78.25
15419;BME280;7808;43.712;23.098;2022-08-07T01:54:07;100305.72;;;26.19;78.45
15419;BME280;7808;43.712;23.098;2022-08-07T01:56:42;100311.03;;;26.30;78.24
15419;BME280;7808;43.712;23.098;2022-08-07T01:59:15;100319.47;;;26.26;78.10
15419;BME280;7808;43.712;23.098;2022-08-07T02:01:47;100317.44;;;26.27;78.12
15419;BME280;7808;43.712;23.098;2022-08-07T02:04:24;100318.94;;;26.31;77.84
15419;BME280;7808;43.712;23.098;2022-08-07T02:06:54;100329.19;;;26.34;77.88
15419;BME280;7808;43.712;23.098;2022-08-07T02:09:24;100323.28;;;26.32;79.01
15419;BME280;7808;43.712;23.098;2022-08-07T02:11:55;100332.31;;;26.20;79.49
15419;BME280;7808;43.712;23.098;2022-08-07T02:14:23;100341.63;;;26.10;79.89
15419;BME280;7808;43.712;23.098;2022-08-07T02:16:53;100330.97;;;26.08;80.03
15419;BME280;7808;43.712;23.098;2022-08-07T02:19:21;100321.19;;;26.00;80.54
15419;BME280;7808;43.712;23.098;2022-08-07T02:21:50;100314.69;;;26.07;80.53
15419;BME280;7808;43.712;23.098;2022-08-07T02:24:18;100312.81;;;26.04;80.86
15419;BME280;7808;43.712;23.098;2022-08-07T02:26:46;100309.25;;;26.03;81.24
15419;BME280;7808;43.712;23.098;2022-08-07T02:29:16;100323.13;;;26.03;81.15
15419;BME280;7808;43.712;23.098;2022-08-07T02:31:44;100310.47;;;25.83;80.91
15419;BME280;7808;43.712;23.098;2022-08-07T02:34:11;100327.13;;;25.83;80.62
15419;BME280;7808;43.712;23.098;2022-08-07T02:36:40;100329.88;;;25.67;80.58
15419;BME280;7808;43.712;23.098;2022-08-07T02:39:09;100327.38;;;25.53;81.17
15419;BME280;7808;43.712;23.098;2022-08-07T02:41:38;100325.81;;;25.52;82.00
15419;BME280;7808;43.712;23.098;2022-08-07T02:44:06;100326.38;;;25.43;82.14
15419;BME280;7808;43.712;23.098;2022-08-07T02:46:36;100328.75;;;25.41;81.21
15419;BME280;7808;43.712;23.098;2022-08-07T02:49:04;100330.53;;;25.31;81.31
15419;BME280;7808;43.712;23.098;2022-08-07T02:51:32;100320.19;;;25.12;82.63
15419;BME280;7808;43.712;23.098;2022-08-07T02:54:02;100317.50;;;25.09;83.27
15419;BME280;7808;43.712;23.098;2022-08-07T02:56:31;100318.13;;;25.16;82.96
15419;BME280;7808;43.712;23.098;2022-08-07T02:59:01;100308.63;;;25.17;83.23
15419;BME280;7808;43.712;23.098;2022-08-07T03:01:31;100316.59;;;25.35;82.34
15419;BME280;7808;43.712;23.098;2022-08-07T03:04:00;100314.75;;;25.28;82.00
15419;BME280;7808;43.712;23.098;2022-08-07T03:06:28;100322.94;;;25.16;83.43
15419;BME280;7808;43.712;23.098;2022-08-07T03:08:56;100318.28;;;25.09;82.54
15419;BME280;7808;43.712;23.098;2022-08-07T03:11:23;100322.25;;;25.08;82.82
15419;BME280;7808;43.712;23.098;2022-08-07T03:13:50;100313.47;;;24.90;83.10
15419;BME280;7808;43.712;23.098;2022-08-07T03:16:17;100324.59;;;24.63;83.67
15419;BME280;7808;43.712;23.098;2022-08-07T03:18:45;100322.06;;;24.49;84.23
15419;BME280;7808;43.712;23.098;2022-08-07T03:21:15;100335.28;;;24.11;86.57
15419;BME280;7808;43.712;23.098;2022-08-07T03:23:43;100340.06;;;24.11;87.98
15419;BME280;7808;43.712;23.098;2022-08-07T03:26:13;100341.19;;;24.13;87.74
15419;BME280;7808;43.712;23.098;2022-08-07T03:28:45;100338.78;;;23.85;87.74
15419;BME280;7808;43.712;23.098;2022-08-07T03:31:12;100354.22;;;23.86;88.53
15419;BME280;7808;43.712;23.098;2022-08-07T03:33:46;100358.53;;;23.87;88.90
15419;BME280;7808;43.712;23.098;2022-08-07T03:36:16;100357.06;;;23.79;89.28
15419;BME280;7808;43.712;23.098;2022-08-07T03:38:45;100363.22;;;23.60;90.45
15419;BME280;7808;43.712;23.098;2022-08-07T03:41:14;100366.44;;;23.55;91.03
15419;BME280;7808;43.712;23.098;2022-08-07T03:43:42;100367.28;;;23.52;91.72
15419;BME280;7808;43.712;23.098;2022-08-07T03:46:10;100371.91;;;23.62;91.21
15419;BME280;7808;43.712;23.098;2022-08-07T03:48:39;100370.69;;;23.63;91.51
15419;BME280;7808;43.712;23.098;2022-08-07T03:51:07;100377.34;;;23.69;91.73
15419;BME280;7808;43.712;23.098;2022-08-07T03:53:36;100379.28;;;23.72;91.38
15419;BME280;7808;43.712;23.098;2022-08-07T03:56:04;100366.09;;;23.83;91.48
15419;BME280;7808;43.712;23.098;2022-08-07T03:58:31;100372.16;;;24.05;90.33
15419;BME280;7808;43.712;23.098;2022-08-07T04:00:59;100389.19;;;24.03;90.46
15419;BME280;7808;43.712;23.098;2022-08-07T04:03:27;100383.41;;;23.91;91.02
15419;BME280;7808;43.712;23.098;2022-08-07T04:05:54;100393.50;;;24.04;90.44
15419;BME280;7808;43.712;23.098;2022-08-07T04:08:22;100395.75;;;24.16;90.33
15419;BME280;7808;43.712;23.098;2022-08-07T04:10:51;100389.28;;;24.27;90.24
15419;BME280;7808;43.712;23.098;2022-08-07T04:13:20;100374.03;;;24.42;89.97
15419;BME280;7808;43.712;23.098;2022-08-07T04:15:47;100379.69;;;24.61;88.85
15419;BME280;7808;43.712;23.098;2022-08-07T04:18:14;100385.91;;;24.69;88.50
15419;BME280;7808;43.712;23.098;2022-08-07T04:20:42;100382.91;;;24.83;87.81
15419;BME280;7808;43.712;23.098;2022-08-07T04:23:09;100382.09;;;24.86;88.12
15419;BME280;7808;43.712;23.098;2022-08-07T04:25:36;100389.19;;;24.87;88.58
15419;BME280;7808;43.712;23.098;2022-08-07T04:28:06;100383.63;;;24.87;88.20
15419;BME280;7808;43.712;23.098;2022-08-07T04:30:35;100396.81;;;25.06;87.84
15419;BME280;7808;43.712;23.098;2022-08-07T04:33:05;100401.00;;;25.14;87.26
15419;BME280;7808;43.712;23.098;2022-08-07T04:35:33;100393.44;;;25.18;87.47
15419;BME280;7808;43.712;23.098;2022-08-07T04:38:04;100390.16;;;25.23;87.54
15419;BME280;7808;43.712;23.098;2022-08-07T04:40:31;100394.00;;;25.29;86.99
15419;BME280;7808;43.712;23.098;2022-08-07T04:42:58;100389.97;;;25.34;87.27
15419;BME280;7808;43.712;23.098;2022-08-07T04:45:31;100398.72;;;25.32;87.80
15419;BME280;7808;43.712;23.098;2022-08-07T04:48:03;100401.41;;;25.36;87.65
15419;BME280;7808;43.712;23.098;2022-08-07T04:50:36;100395.44;;;25.37;87.52
15419;BME280;7808;43.712;23.098;2022-08-07T04:53:07;100407.25;;;25.41;87.24
15419;BME280;7808;43.712;23.098;2022-08-07T04:55:43;100410.53;;;25.36;88.50
15419;BME280;7808;43.712;23.098;2022-08-07T04:58:18;100414.41;;;25.42;87.92
15419;BME280;7808;43.712;23.098;2022-08-07T05:00:50;100418.38;;;25.41;87.67
15419;BME280;7808;43.712;23.098;2022-08-07T05:03:23;100426.19;;;25.50;87.37
15419;BME280;7808;43.712;23.098;2022-08-07T05:05:56;100429.97;;;25.60;87.30
15419;BME280;7808;43.712;23.098;2022-08-07T05:08:27;100435.88;;;25.62;86.83
15419;BME280;7808;43.712;23.098;2022-08-07T05:11:04;100431.25;;;25.55;87.65
15419;BME280;7808;43.712;23.098;2022-08-07T05:13:39;100421.78;;;25.53;87.68
15419;BME280;7808;43.712;23.098;2022-08-07T05:16:13;100424.25;;;25.43;88.33
15419;BME280;7808;43.712;23.098;2022-08-07T05:18:46;100432.72;;;25.36;88.19
15419;BME280;7808;43.712;23.098;2022-08-07T05:21:16;100412.91;;;25.15;88.83
15419;BME280;7808;43.712;23.098;2022-08-07T05:23:47;100436.91;;;25.25;88.97
15419;BME280;7808;43.712;23.098;2022-08-07T05:26:17;100442.00;;;25.26;88.92
15419;BME280;7808;43.712;23.098;2022-08-07T05:28:47;100451.44;;;25.32;88.89
15419;BME280;7808;43.712;23.098;2022-08-07T05:31:17;100448.59;;;25.36;89.60
15419;BME280;7808;43.712;23.098;2022-08-07T05:33:46;100454.94;;;25.36;88.80
15419;BME280;7808;43.712;23.098;2022-08-07T05:36:16;100458.53;;;25.33;88.90
15419;BME280;7808;43.712;23.098;2022-08-07T05:38:44;100467.25;;;25.35;88.83
15419;BME280;7808;43.712;23.098;2022-08-07T05:41:11;100472.94;;;25.52;88.24
15419;BME280;7808;43.712;23.098;2022-08-07T05:43:39;100477.81;;;25.67;87.42
15419;BME280;7808;43.712;23.098;2022-08-07T05:46:06;100480.25;;;25.85;86.56
15419;BME280;7808;43.712;23.098;2022-08-07T05:48:35;100480.75;;;25.99;85.67
15419;BME280;7808;43.712;23.098;2022-08-07T05:51:05;100485.31;;;26.09;85.88
15419;BME280;7808;43.712;23.098;2022-08-07T05:53:32;100478.41;;;25.98;85.36
15419;BME280;7808;43.712;23.098;2022-08-07T05:55:59;100489.59;;;25.94;85.97
15419;BME280;7808;43.712;23.098;2022-08-07T05:58:28;100494.16;;;26.04;85.72
15419;BME280;7808;43.712;23.098;2022-08-07T06:00:57;100485.28;;;26.13;85.97
15419;BME280;7808;43.712;23.098;2022-08-07T06:03:26;100495.56;;;26.16;85.61
15419;BME280;7808;43.712;23.098;2022-08-07T06:05:56;100496.25;;;26.20;85.67
15419;BME280;7808;43.712;23.098;2022-08-07T06:08:24;100488.63;;;26.24;85.09
15419;BME280;7808;43.712;23.098;2022-08-07T06:10:52;100501.53;;;26.34;85.87
15419;BME280;7808;43.712;23.098;2022-08-07T06:13:19;100507.94;;;26.31;85.27
15419;BME280;7808;43.712;23.098;2022-08-07T06:15:47;100506.56;;;26.39;85.11
15419;BME280;7808;43.712;23.098;2022-08-07T06:18:15;100513.91;;;26.49;84.62
15419;BME280;7808;43.712;23.098;2022-08-07T06:20:43;100501.00;;;26.39;85.14
15419;BME280;7808;43.712;23.098;2022-08-07T06:23:12;100516.34;;;26.47;84.72
15419;BME280;7808;43.712;23.098;2022-08-07T06:25:40;100511.59;;;26.28;84.18
15419;BME280;7808;43.712;23.098;2022-08-07T06:28:08;100518.13;;;26.38;84.26
15419;BME280;7808;43.712;23.098;2022-08-07T06:30:36;100512.22;;;26.36;84.24
15419;BME280;7808;43.712;23.098;2022-08-07T06:33:05;100519.84;;;26.32;84.82
15419;BME280;7808;43.712;23.098;2022-08-07T06:35:34;100526.38;;;26.41;85.00
15419;BME280;7808;43.712;23.098;2022-08-07T06:38:01;100519.56;;;26.46;85.07
15419;BME280;7808;43.712;23.098;2022-08-07T06:40:34;100524.09;;;26.56;84.23
15419;BME280;7808;43.712;23.098;2022-08-07T06:43:05;100508.94;;;26.41;85.31
15419;BME280;7808;43.712;23.098;2022-08-07T06:45:35;100502.44;;;26.47;84.58
15419;BME280;7808;43.712;23.098;2022-08-07T06:48:02;100520.09;;;26.77;84.35
15419;BME280;7808;43.712;23.098;2022-08-07T06:50:32;100523.25;;;26.79;84.30
15419;BME280;7808;43.712;23.098;2022-08-07T06:53:02;100512.16;;;26.95;84.33
15419;BME280;7808;43.712;23.098;2022-08-07T06:55:31;100520.75;;;27.00;83.46
15419;BME280;7808;43.712;23.098;2022-08-07T06:58:01;100510.25;;;27.24;81.23
15419;BME280;7808;43.712;23.098;2022-08-07T07:00:31;100519.56;;;27.33;82.05
15419;BME280;7808;43.712;23.098;2022-08-07T07:03:01;100515.47;;;27.54;80.83
15419;BME280;7808;43.712;23.098;2022-08-07T07:05:29;100517.13;;;27.52;79.56
15419;BME280;7808;43.712;23.098;2022-08-07T07:07:57;100519.13;;;27.67;80.14
15419;BME280;7808;43.712;23.098;2022-08-07T07:10:27;100517.72;;;27.75;78.80
15419;BME280;7808;43.712;23.098;2022-08-07T07:13:01;100523.53;;;27.81;79.39
15419;BME280;7808;43.712;23.098;2022-08-07T07:15:30;100522.72;;;27.96;79.03
15419;BME280;7808;43.712;23.098;2022-08-07T07:18:02;100515.25;;;28.22;77.44
15419;BME280;7808;43.712;23.098;2022-08-07T07:20:33;100514.53;;;28.47;75.95
15419;BME280;7808;43.712;23.098;2022-08-07T07:23:01;100526.59;;;28.56;75.53
15419;BME280;7808;43.712;23.098;2022-08-07T07:25:29;100536.59;;;28.70;73.91
15419;BME280;7808;43.712;23.098;2022-08-07T07:28:01;100532.03;;;28.76;73.35
15419;BME280;7808;43.712;23.098;2022-08-07T07:30:32;100531.03;;;28.83;71.89
15419;BME280;7808;43.712;23.098;2022-08-07T07:33:01;100534.94;;;28.85;70.93
15419;BME280;7808;43.712;23.098;2022-08-07T07:35:30;100539.19;;;28.77;72.86
15419;BME280;7808;43.712;23.098;2022-08-07T07:38:00;100539.53;;;28.92;71.45
15419;BME280;7808;43.712;23.098;2022-08-07T07:40:30;100530.28;;;29.07;70.13
15419;BME280;7808;43.712;23.098;2022-08-07T07:42:59;100536.50;;;29.11;68.99
15419;BME280;7808;43.712;23.098;2022-08-07T07:45:29;100531.91;;;29.17;68.19
15419;BME280;7808;43.712;23.098;2022-08-07T07:47:58;100545.88;;;29.43;69.60
15419;BME280;7808;43.712;23.098;2022-08-07T07:50:29;100543.94;;;29.65;65.77
15419;BME280;7808;43.712;23.098;2022-08-07T07:52:58;100543.91;;;29.90;64.71
15419;BME280;7808;43.712;23.098;2022-08-07T07:55:26;100534.16;;;29.95;64.43
15419;BME280;7808;43.712;23.098;2022-08-07T07:57:55;100540.25;;;30.36;65.13
15419;BME280;7808;43.712;23.098;2022-08-07T08:00:26;100544.25;;;30.79;62.97
15419;BME280;7808;43.712;23.098;2022-08-07T08:02:56;100545.88;;;31.29;61.37
15419;BME280;7808;43.712;23.098;2022-08-07T08:05:25;100540.75;;;31.27;58.33
15419;BME280;7808;43.712;23.098;2022-08-07T08:07:51;100545.41;;;31.30;58.73
15419;BME280;7808;43.712;23.098;2022-08-07T08:10:20;100544.88;;;31.62;57.38
15419;BME280;7808;43.712;23.098;2022-08-07T08:12:48;100532.44;;;31.72;55.88
15419;BME280;7808;43.712;23.098;2022-08-07T08:15:16;100545.53;;;31.84;56.49
15419;BME280;7808;43.712;23.098;2022-08-07T08:17:45;100545.41;;;31.88;55.30
15419;BME280;7808;43.712;23.098;2022-08-07T08:20:13;100540.41;;;32.28;55.15
15419;BME280;7808;43.712;23.098;2022-08-07T08:22:42;100533.72;;;32.35;52.92
15419;BME280;7808;43.712;23.098;2022-08-07T08:25:30;100553.66;;;32.37;50.58
15419;BME280;7808;43.712;23.098;2022-08-07T08:28:21;100553.50;;;32.13;52.75
15419;BME280;7808;43.712;23.098;2022-08-07T08:30:52;100551.94;;;32.30;52.87
15419;BME280;7808;43.712;23.098;2022-08-07T08:33:22;100545.56;;;31.94;52.49
15419;BME280;7808;43.712;23.098;2022-08-07T08:35:51;100545.88;;;32.32;52.93
15419;BME280;7808;43.712;23.098;2022-08-07T08:38:22;100550.53;;;32.44;51.25
15419;BME280;7808;43.712;23.098;2022-08-07T08:40:54;100541.69;;;32.27;52.58
15419;BME280;7808;43.712;23.098;2022-08-07T08:43:32;100542.44;;;32.19;52.41
15419;BME280;7808;43.712;23.098;2022-08-07T08:46:06;100534.94;;;32.34;52.30
15419;BME280;7808;43.712;23.098;2022-08-07T08:48:48;100535.19;;;32.72;52.32
15419;BME280;7808;43.712;23.098;2022-08-07T08:51:23;100537.03;;;33.26;50.64
15419;BME280;7808;43.712;23.098;2022-08-07T08:53:56;100542.13;;;33.69;49.50
15419;BME280;7808;43.712;23.098;2022-08-07T08:56:27;100542.63;;;33.83;46.52
15419;BME280;7808;43.712;23.098;2022-08-07T08:59:01;100538.38;;;33.87;47.06
15419;BME280;7808;43.712;23.098;2022-08-07T09:01:34;100529.31;;;34.07;46.63
15419;BME280;7808;43.712;23.098;2022-08-07T09:04:08;100529.78;;;33.67;47.12
15419;BME280;7808;43.712;23.098;2022-08-07T09:06:39;100523.31;;;33.76;48.24
15419;BME280;7808;43.712;23.098;2022-08-07T09:09:20;100520.03;;;34.30;46.47
15419;BME280;7808;43.712;23.098;2022-08-07T09:11:57;100529.44;;;34.12;45.24
15419;BME280;7808;43.712;23.098;2022-08-07T09:14:33;100522.97;;;34.35;47.08
15419;BME280;7808;43.712;23.098;2022-08-07T09:17:10;100513.84;;;34.70;45.39
15419;BME280;7808;43.712;23.098;2022-08-07T09:19:45;100516.19;;;34.71;45.63
15419;BME280;7808;43.712;23.098;2022-08-07T09:22:39;100515.38;;;34.85;43.50
15419;BME280;7808;43.712;23.098;2022-08-07T09:25:13;100517.66;;;34.67;44.56
15419;BME280;7808;43.712;23.098;2022-08-07T09:27:51;100518.31;;;34.62;44.21
15419;BME280;7808;43.712;23.098;2022-08-07T09:30:22;100515.59;;;34.23;45.12
15419;BME280;7808;43.712;23.098;2022-08-07T09:32:58;100513.25;;;33.84;45.82
15419;BME280;7808;43.712;23.098;2022-08-07T09:35:35;100515.91;;;33.63;47.38
15419;BME280;7808;43.712;23.098;2022-08-07T09:38:10;100512.66;;;33.56;46.59
15419;BME280;7808;43.712;23.098;2022-08-07T09:40:49;100507.03;;;33.56;47.24
15419;BME280;7808;43.712;23.098;2022-08-07T09:43:27;100511.06;;;33.64;45.83
15419;BME280;7808;43.712;23.098;2022-08-07T09:46:07;100503.56;;;33.61;47.09
15419;BME280;7808;43.712;23.098;2022-08-07T09:48:57;100510.91;;;33.82;45.67
15419;BME280;7808;43.712;23.098;2022-08-07T09:51:46;100499.56;;;34.29;46.86
15419;BME280;7808;43.712;23.098;2022-08-07T09:54:21;100493.81;;;34.68;45.46
15419;BME280;7808;43.712;23.098;2022-08-07T09:57:07;100492.00;;;35.14;43.03
15419;BME280;7808;43.712;23.098;2022-08-07T09:59:52;100486.44;;;35.54;41.83
15419;BME280;7808;43.712;23.098;2022-08-07T10:02:41;100478.06;;;35.86;40.66
15419;BME280;7808;43.712;23.098;2022-08-07T10:08:28;100480.63;;;35.43;39.79
15419;BME280;7808;43.712;23.098;2022-08-07T10:11:06;100476.72;;;35.21;41.02
15419;BME280;7808;43.712;23.098;2022-08-07T10:13:49;100479.56;;;35.21;42.00
15419;BME280;7808;43.712;23.098;2022-08-07T10:16:34;100470.09;;;35.04;40.85
15419;BME280;7808;43.712;23.098;2022-08-07T10:19:24;100470.59;;;35.22;40.87
15419;BME280;7808;43.712;23.098;2022-08-07T10:22:13;100474.81;;;34.97;40.35
15419;BME280;7808;43.712;23.098;2022-08-07T10:24:59;100463.66;;;35.03;42.14
15419;BME280;7808;43.712;23.098;2022-08-07T10:27:40;100464.28;;;35.68;39.66
15419;BME280;7808;43.712;23.098;2022-08-07T10:30:14;100454.06;;;35.96;39.56
15419;BME280;7808;43.712;23.098;2022-08-07T10:32:58;100466.66;;;35.75;39.82
15419;BME280;7808;43.712;23.098;2022-08-07T10:35:39;100455.47;;;35.60;39.82
15419;BME280;7808;43.712;23.098;2022-08-07T10:38:21;100450.19;;;35.68;38.57
15419;BME280;7808;43.712;23.098;2022-08-07T10:41:07;100457.72;;;35.36;39.75
15419;BME280;7808;43.712;23.098;2022-08-07T10:43:40;100454.59;;;35.14;40.14
15419;BME280;7808;43.712;23.098;2022-08-07T10:46:17;100445.88;;;34.97;40.14
15419;BME280;7808;43.712;23.098;2022-08-07T10:48:49;100445.66;;;35.15;40.72
15419;BME280;7808;43.712;23.098;2022-08-07T10:51:21;100444.28;;;35.51;40.56
15419;BME280;7808;43.712;23.098;2022-08-07T10:54:03;100442.00;;;36.21;39.70
15419;BME280;7808;43.712;23.098;2022-08-07T10:56:42;100422.06;;;36.30;37.39
15419;BME280;7808;43.712;23.098;2022-08-07T10:59:18;100434.28;;;36.16;37.73
15419;BME280;7808;43.712;23.098;2022-08-07T11:01:50;100428.38;;;35.68;37.76
15419;BME280;7808;43.712;23.098;2022-08-07T11:04:34;100426.91;;;35.52;38.51
15419;BME280;7808;43.712;23.098;2022-08-07T11:07:11;100421.81;;;35.36;38.22
15419;BME280;7808;43.712;23.098;2022-08-07T11:09:46;100416.19;;;35.36;37.83
15419;BME280;7808;43.712;23.098;2022-08-07T11:12:18;100412.25;;;35.28;37.18
15419;BME280;7808;43.712;23.098;2022-08-07T11:14:51;100416.03;;;35.05;38.27
15419;BME280;7808;43.712;23.098;2022-08-07T11:17:24;100431.03;;;34.96;38.40
15419;BME280;7808;43.712;23.098;2022-08-07T11:20:00;100422.91;;;34.84;38.50
15419;BME280;7808;43.712;23.098;2022-08-07T11:22:33;100416.03;;;35.05;38.74
15419;BME280;7808;43.712;23.098;2022-08-07T11:25:07;100408.34;;;35.66;39.20
15419;BME280;7808;43.712;23.098;2022-08-07T11:27:44;100402.72;;;35.92;37.40
15419;BME280;7808;43.712;23.098;2022-08-07T11:30:16;100392.25;;;35.26;38.70
15419;BME280;7808;43.712;23.098;2022-08-07T11:32:50;100381.03;;;34.57;40.63
15419;BME280;7808;43.712;23.098;2022-08-07T11:35:25;100391.38;;;34.65;41.02
15419;BME280;7808;43.712;23.098;2022-08-07T11:38:07;100398.50;;;34.31;41.08
15419;BME280;7808;43.712;23.098;2022-08-07T11:40:42;100398.88;;;33.81;42.50
15419;BME280;7808;43.712;23.098;2022-08-07T11:43:18;100396.63;;;33.32;43.49
15419;BME280;7808;43.712;23.098;2022-08-07T11:49:00;100388.72;;;32.97;45.25
15419;BME280;7808;43.712;23.098;2022-08-07T11:51:36;100381.53;;;32.96;44.88
15419;BME280;7808;43.712;23.098;2022-08-07T11:54:18;100386.59;;;33.40;45.02
15419;BME280;7808;43.712;23.098;2022-08-07T11:56:56;100376.94;;;33.70;43.35
15419;BME280;7808;43.712;23.098;2022-08-07T11:59:38;100375.69;;;33.86;42.64
15419;BME280;7808;43.712;23.098;2022-08-07T12:02:15;100375.59;;;34.24;41.20
15419;BME280;7808;43.712;23.098;2022-08-07T12:04:59;100356.75;;;34.45;40.24
15419;BME280;7808;43.712;23.098;2022-08-07T12:07:32;100365.34;;;34.90;40.17
15419;BME280;7808;43.712;23.098;2022-08-07T12:10:02;100359.81;;;35.16;39.35
15419;BME280;7808;43.712;23.098;2022-08-07T12:12:36;100347.88;;;35.27;38.84
15419;BME280;7808;43.712;23.098;2022-08-07T12:15:11;100359.84;;;35.42;38.42
15419;BME280;7808;43.712;23.098;2022-08-07T12:17:45;100349.88;;;35.21;37.78
15419;BME280;7808;43.712;23.098;2022-08-07T12:20:21;100357.53;;;35.40;39.02
15419;BME280;7808;43.712;23.098;2022-08-07T12:23:01;100350.78;;;35.12;39.17
15419;BME280;7808;43.712;23.098;2022-08-07T12:25:43;100348.59;;;35.02;38.38
15419;BME280;7808;43.712;23.098;2022-08-07T12:28:26;100334.44;;;34.96;38.92
15419;BME280;7808;43.712;23.098;2022-08-07T12:31:00;100355.72;;;35.17;38.47
15419;BME280;7808;43.712;23.098;2022-08-07T12:33:30;100349.53;;;35.13;38.71
15419;BME280;7808;43.712;23.098;2022-08-07T12:35:58;100349.06;;;34.80;39.13
15419;BME280;7808;43.712;23.098;2022-08-07T12:38:27;100347.97;;;34.72;39.61
15419;BME280;7808;43.712;23.098;2022-08-07T12:40:56;100322.31;;;34.90;39.35
15419;BME280;7808;43.712;23.098;2022-08-07T12:43:28;100336.13;;;34.88;38.47
15419;BME280;7808;43.712;23.098;2022-08-07T12:46:09;100340.34;;;34.78;38.58
15419;BME280;7808;43.712;23.098;2022-08-07T12:48:44;100336.69;;;35.12;37.53
15419;BME280;7808;43.712;23.098;2022-08-07T12:51:16;100333.31;;;35.28;36.69
15419;BME280;7808;43.712;23.098;2022-08-07T12:53:49;100319.50;;;35.30;36.37
15419;BME280;7808;43.712;23.098;2022-08-07T12:56:24;100332.78;;;35.50;36.56
15419;BME280;7808;43.712;23.098;2022-08-07T12:58:52;100327.13;;;35.76;35.91
15419;BME280;7808;43.712;23.098;2022-08-07T13:01:31;100323.28;;;35.99;35.50
15419;BME280;7808;43.712;23.098;2022-08-07T13:10:16;100303.78;;;35.49;33.84
15419;BME280;7808;43.712;23.098;2022-08-07T13:12:58;100301.16;;;35.40;34.64
15419;BME280;7808;43.712;23.098;2022-08-07T13:15:35;100301.97;;;35.46;34.92
15419;BME280;7808;43.712;23.098;2022-08-07T13:18:14;100297.00;;;35.61;35.14
15419;BME280;7808;43.712;23.098;2022-08-07T13:20:46;100286.34;;;35.45;34.80
15419;BME280;7808;43.712;23.098;2022-08-07T13:23:23;100280.13;;;35.41;33.30
15419;BME280;7808;43.712;23.098;2022-08-07T13:25:55;100287.75;;;35.55;32.53